createdAt,value
2022-12-27T00:02:56.539Z,100.00
2022-12-27T00:05:58.131Z,100.00
2022-12-27T00:09:01.604Z,100.00
2022-12-27T00:12:03.163Z,100.00
2022-12-27T00:15:05.671Z,100.00
2022-12-27T00:18:07.261Z,100.00
2022-12-27T00:21:11.428Z,100.00
2022-12-27T00:24:13.031Z,100.00
2022-12-27T00:27:14.654Z,100.00
2022-12-27T00:30:16.322Z,100.00
2022-12-27T00:33:17.883Z,100.00
2022-12-27T00:36:22.757Z,100.00
2022-12-27T00:39:24.418Z,100.00
2022-12-27T00:42:26.036Z,100.00
2022-12-27T00:45:27.683Z,100.00
2022-12-27T00:48:29.743Z,100.00
2022-12-27T00:51:31.490Z,100.00
2022-12-27T00:54:33.117Z,100.00
2022-12-27T00:57:34.645Z,100.00
2022-12-27T01:00:36.684Z,100.00
2022-12-27T01:03:38.297Z,100.00
2022-12-27T01:06:40.024Z,100.00
2022-12-27T01:09:41.587Z,100.00
2022-12-27T01:12:43.117Z,100.00
2022-12-27T01:15:44.691Z,100.00
2022-12-27T01:18:47.071Z,100.00
2022-12-27T01:21:48.641Z,100.00
2022-12-27T01:24:50.181Z,100.00
2022-12-27T01:27:51.859Z,100.00
2022-12-27T01:30:53.597Z,100.00
2022-12-27T01:33:57.310Z,100.00
2022-12-27T01:36:58.871Z,100.00
2022-12-27T01:40:01.759Z,100.00
2022-12-27T01:43:04.090Z,100.00
2022-12-27T01:46:05.807Z,100.00
2022-12-27T01:49:11.546Z,100.00
2022-12-27T01:52:14.241Z,100.00
2022-12-27T01:55:25.086Z,100.00
2022-12-27T01:58:29.526Z,100.00
2022-12-27T02:01:37.727Z,100.00
2022-12-27T02:04:40.003Z,100.00
2022-12-27T02:07:57.159Z,100.00
2022-12-27T02:11:00.624Z,100.00
2022-12-27T02:14:02.327Z,100.00
2022-12-27T02:17:08.071Z,100.00
2022-12-27T02:20:22.714Z,100.00
2022-12-27T02:24:07.684Z,100.00
2022-12-27T02:27:27.836Z,100.00
2022-12-27T02:30:33.813Z,100.00
2022-12-27T02:33:43.645Z,100.00
2022-12-27T02:36:46.510Z,100.00
2022-12-27T02:39:50.363Z,100.00
2022-12-27T02:43:10.963Z,100.00
2022-12-27T02:46:37.131Z,100.00
2022-12-27T02:50:01.109Z,100.00
2022-12-27T02:53:12.641Z,100.00
2022-12-27T02:57:08.838Z,100.00
2022-12-27T03:00:31.737Z,100.00
2022-12-27T03:04:18.551Z,100.00
2022-12-27T03:07:48.838Z,100.00
2022-12-27T03:11:18.707Z,100.00
2022-12-27T03:14:52.626Z,100.00
2022-12-27T03:18:06.376Z,100.00
2022-12-27T03:21:27.734Z,100.00
2022-12-27T03:24:55.308Z,100.00
2022-12-27T03:28:34.290Z,100.00
2022-12-27T03:31:59.460Z,100.00
2022-12-27T03:35:14.983Z,100.00
2022-12-27T03:38:16.793Z,100.00
2022-12-27T03:41:49.991Z,100.00
2022-12-27T03:44:52.063Z,100.00
2022-12-27T03:47:59.967Z,100.00
2022-12-27T03:51:05.342Z,100.00
2022-12-27T03:54:17.086Z,100.00
2022-12-27T03:57:22.553Z,100.00
2022-12-27T04:00:24.214Z,100.00
2022-12-27T04:03:25.869Z,100.00
2022-12-27T04:06:27.491Z,100.00
2022-12-27T04:09:47.428Z,100.00
2022-12-27T04:13:07.574Z,100.00
2022-12-27T04:16:27.823Z,100.00
2022-12-27T04:19:48.067Z,100.00
2022-12-27T04:23:08.397Z,100.00
2022-12-27T04:26:28.417Z,100.00
2022-12-27T04:29:48.443Z,100.00
2022-12-27T04:33:08.639Z,100.00
2022-12-27T04:36:10.203Z,100.00
2022-12-27T04:39:12.057Z,100.00
2022-12-27T04:42:32.457Z,100.00
2022-12-27T04:45:53.200Z,100.00
2022-12-27T04:49:13.364Z,100.00
2022-12-27T04:52:39.284Z,100.00
2022-12-27T04:55:40.844Z,100.00
2022-12-27T04:59:02.484Z,100.00
2022-12-27T05:02:04.413Z,100.00
2022-12-27T05:05:07.946Z,100.00
2022-12-27T05:08:29.154Z,100.00
2022-12-27T05:11:49.573Z,100.00
2022-12-27T05:14:51.219Z,100.00
2022-12-27T05:17:52.796Z,100.00
2022-12-27T05:20:54.435Z,100.00
2022-12-27T05:24:14.380Z,100.00
2022-12-27T05:27:16.450Z,100.00
2022-12-27T05:30:18.106Z,100.00
2022-12-27T05:33:19.690Z,100.00
2022-12-27T05:36:21.269Z,100.00
2022-12-27T05:39:22.827Z,100.00
2022-12-27T05:42:24.423Z,100.00
2022-12-27T05:45:26.258Z,100.00
2022-12-27T05:48:28.320Z,100.00
2022-12-27T05:51:30.064Z,100.00
2022-12-27T05:54:31.639Z,100.00
2022-12-27T05:57:33.824Z,100.00
2022-12-27T06:00:35.477Z,100.00
2022-12-27T06:03:37.339Z,100.00
2022-12-27T06:06:38.939Z,100.00
2022-12-27T06:09:40.655Z,100.00
2022-12-27T06:12:42.322Z,100.00
2022-12-27T06:15:43.972Z,100.00
2022-12-27T06:18:45.744Z,100.00
2022-12-27T06:21:47.504Z,100.00
2022-12-27T06:24:49.136Z,100.00
2022-12-27T06:27:50.716Z,100.00
2022-12-27T06:30:52.374Z,100.00
2022-12-27T06:33:54.550Z,100.00
2022-12-27T06:36:57.638Z,100.00
2022-12-27T06:39:59.123Z,100.00
2022-12-27T06:43:00.651Z,100.00
2022-12-27T06:46:05.669Z,100.00
2022-12-27T06:49:07.346Z,100.00
2022-12-27T06:52:08.864Z,100.00
2022-12-27T06:55:10.460Z,100.00
2022-12-27T06:58:13.664Z,100.00
2022-12-27T07:01:20.712Z,100.00
2022-12-27T07:04:22.301Z,100.00
2022-12-27T07:07:23.957Z,100.00
2022-12-27T07:10:25.820Z,100.00
2022-12-27T07:13:27.585Z,100.00
2022-12-27T07:16:30.518Z,100.00
2022-12-27T07:19:32.237Z,100.00
2022-12-27T07:22:34.620Z,100.00
2022-12-27T07:25:36.266Z,100.00
2022-12-27T07:28:38.748Z,100.00
2022-12-27T07:31:40.576Z,100.00
2022-12-27T07:34:42.264Z,100.00
2022-12-27T07:37:43.826Z,100.00
2022-12-27T07:40:45.380Z,100.00
2022-12-27T07:43:47.227Z,100.00
2022-12-27T07:46:49.071Z,100.00
2022-12-27T07:50:16.063Z,100.00
2022-12-27T07:53:17.740Z,100.00
2022-12-27T07:56:29.413Z,100.00
2022-12-27T07:59:33.940Z,100.00
2022-12-27T08:02:46.967Z,100.00
2022-12-27T08:05:50.001Z,100.00
2022-12-27T08:08:52.840Z,100.00
2022-12-27T08:11:54.529Z,100.00
2022-12-27T08:14:56.080Z,100.00
2022-12-27T08:17:57.602Z,100.00
2022-12-27T08:20:59.075Z,100.00
2022-12-27T08:24:00.645Z,100.00
2022-12-27T08:27:02.240Z,100.00
2022-12-27T08:30:04.591Z,100.00
2022-12-27T08:33:10.346Z,100.00
2022-12-27T08:36:45.299Z,100.00
2022-12-27T08:39:34.464Z,100.00
2022-12-27T08:42:35.957Z,100.00
2022-12-27T08:45:38.617Z,100.00
2022-12-27T08:48:40.743Z,100.00
2022-12-27T08:51:42.372Z,100.00
2022-12-27T08:54:43.957Z,100.00
2022-12-27T08:57:45.445Z,100.00
2022-12-27T09:00:47.046Z,100.00
2022-12-27T09:03:51.035Z,100.00
2022-12-27T09:06:52.593Z,100.00
2022-12-27T09:09:54.147Z,100.00
2022-12-27T09:12:55.732Z,100.00
2022-12-27T09:15:57.462Z,100.00
2022-12-27T09:18:59.629Z,100.00
2022-12-27T09:22:01.160Z,100.00
2022-12-27T09:25:02.834Z,100.00
2022-12-27T09:28:04.670Z,100.00
2022-12-27T09:31:09.119Z,100.00
2022-12-27T09:34:11.402Z,100.00
2022-12-27T09:37:13.062Z,100.00
2022-12-27T09:40:19.963Z,100.00
2022-12-27T09:43:36.263Z,100.00
2022-12-27T09:46:50.115Z,100.00
2022-12-27T09:50:14.644Z,100.00
2022-12-27T09:53:26.657Z,100.00
2022-12-27T09:57:01.743Z,100.00
2022-12-27T09:59:59.350Z,100.00
2022-12-27T10:03:04.894Z,100.00
2022-12-27T10:06:47.923Z,100.00
2022-12-27T10:10:18.661Z,100.00
2022-12-27T10:13:46.922Z,100.00
2022-12-27T10:20:13.123Z,100.00
2022-12-27T10:23:23.064Z,100.00
2022-12-27T10:26:24.874Z,100.00
2022-12-27T10:29:28.026Z,100.00
2022-12-27T10:32:29.576Z,100.00
2022-12-27T10:35:31.304Z,100.00
2022-12-27T10:38:34.987Z,100.00
2022-12-27T10:41:50.379Z,100.00
2022-12-27T10:44:51.925Z,100.00
2022-12-27T10:48:11.145Z,100.00
2022-12-27T10:51:12.674Z,100.00
2022-12-27T10:54:20.349Z,100.00
2022-12-27T10:57:29.053Z,100.00
2022-12-27T11:00:30.979Z,100.00
2022-12-27T11:03:33.603Z,100.00
2022-12-27T11:06:35.551Z,100.00
2022-12-27T11:09:50.363Z,100.00
2022-12-27T11:13:06.808Z,100.00
2022-12-27T11:16:27.235Z,100.00
2022-12-27T11:19:29.138Z,100.00
2022-12-27T11:22:30.733Z,100.00
2022-12-27T11:26:30.090Z,100.00
2022-12-27T11:29:33.118Z,100.00
2022-12-27T11:32:34.788Z,100.00
2022-12-27T11:35:47.816Z,100.00
2022-12-27T11:38:50.510Z,100.00
2022-12-27T11:41:54.871Z,100.00
2022-12-27T11:45:14.838Z,100.00
2022-12-27T11:48:16.362Z,100.00
2022-12-27T11:51:37.606Z,100.00
2022-12-27T11:54:51.093Z,100.00
2022-12-27T11:58:13.850Z,100.00
2022-12-27T12:01:37.559Z,100.00
2022-12-27T12:04:41.959Z,100.00
2022-12-27T12:07:49.536Z,100.00
2022-12-27T12:11:14.557Z,100.00
2022-12-27T12:15:10.709Z,100.00
2022-12-27T12:18:30.932Z,98.16
2022-12-27T12:21:53.999Z,98.05
2022-12-27T12:25:02.654Z,97.48
2022-12-27T12:28:57.671Z,96.41
2022-12-27T12:32:01.183Z,95.01
2022-12-27T12:35:20.309Z,93.76
2022-12-27T12:38:27.849Z,94.71
2022-12-27T12:41:44.220Z,95.59
2022-12-27T12:45:07.185Z,95.54
2022-12-27T12:48:33.404Z,96.78
2022-12-27T12:51:45.616Z,96.54
2022-12-27T12:54:56.510Z,95.89
2022-12-27T12:58:22.877Z,95.00
2022-12-27T13:01:50.721Z,94.19
2022-12-27T13:05:20.524Z,93.47
2022-12-27T13:08:38.673Z,94.69
2022-12-27T13:12:05.157Z,95.64
2022-12-27T13:15:27.319Z,94.63
2022-12-27T13:18:41.027Z,96.49
2022-12-27T13:21:52.474Z,95.15
2022-12-27T13:25:11.603Z,94.77
2022-12-27T13:28:30.996Z,95.64
2022-12-27T13:32:08.922Z,96.53
2022-12-27T13:35:40.357Z,95.57
2022-12-27T13:39:27.915Z,96.03
2022-12-27T13:43:06.551Z,94.26
2022-12-27T13:46:34.107Z,94.46
2022-12-27T13:50:03.075Z,95.58
2022-12-27T13:53:05.983Z,94.53
2022-12-27T13:56:54.373Z,95.33
2022-12-27T14:00:15.224Z,94.87
2022-12-27T14:03:50.126Z,96.59
2022-12-27T14:07:03.784Z,92.33
2022-12-27T14:10:32.378Z,97.37
2022-12-27T14:13:40.966Z,97.05
2022-12-27T14:17:01.805Z,98.51
2022-12-27T14:20:34.134Z,100.00
2022-12-27T14:23:56.664Z,100.00
2022-12-27T14:27:37.822Z,100.00
2022-12-27T14:31:14.688Z,100.00
2022-12-27T14:34:34.095Z,100.00
2022-12-27T14:38:11.785Z,100.00
2022-12-27T14:41:44.574Z,100.00
2022-12-27T14:45:20.380Z,100.00
2022-12-27T14:48:57.253Z,100.00
2022-12-27T14:52:12.169Z,100.00
2022-12-27T14:55:36.575Z,100.00
2022-12-27T14:59:02.709Z,100.00
2022-12-27T15:02:41.072Z,100.00
2022-12-27T15:06:08.172Z,100.00
2022-12-27T15:09:31.206Z,100.00
2022-12-27T15:12:57.363Z,100.00
2022-12-27T15:16:14.808Z,100.00
2022-12-27T15:19:54.409Z,100.00
2022-12-27T15:23:05.220Z,100.00
2022-12-27T15:26:28.013Z,100.00
2022-12-27T15:29:50.910Z,100.00
2022-12-27T15:33:09.980Z,100.00
2022-12-27T15:36:18.049Z,100.00
2022-12-27T15:39:34.931Z,100.00
2022-12-27T15:42:44.827Z,100.00
2022-12-27T15:46:08.395Z,100.00
2022-12-27T15:49:39.548Z,100.00
2022-12-27T15:53:16.677Z,100.00
2022-12-27T15:56:42.936Z,100.00
2022-12-27T15:59:52.868Z,100.00
2022-12-27T16:02:57.073Z,100.00
2022-12-27T16:05:58.786Z,100.00
2022-12-27T16:09:18.962Z,100.00
2022-12-27T16:12:38.177Z,100.00
2022-12-27T16:15:51.090Z,100.00
2022-12-27T16:19:23.619Z,100.00
2022-12-27T16:22:37.661Z,100.00
2022-12-27T16:25:43.457Z,100.00
2022-12-27T16:29:07.934Z,100.00
2022-12-27T16:32:21.962Z,100.00
2022-12-27T16:35:23.629Z,100.00
2022-12-27T16:38:25.338Z,100.00
2022-12-27T16:41:36.750Z,100.00
2022-12-27T16:45:03.042Z,100.00
2022-12-27T16:48:27.120Z,100.00
2022-12-27T16:51:54.579Z,100.00
2022-12-27T16:59:55.163Z,100.00
2022-12-27T17:03:52.989Z,100.00
2022-12-27T17:06:56.654Z,100.00
2022-12-27T17:10:34.993Z,100.00
2022-12-27T17:14:06.322Z,100.00
2022-12-27T17:17:17.824Z,100.00
2022-12-27T17:20:21.234Z,100.00
2022-12-27T17:23:23.416Z,100.00
2022-12-27T17:26:43.396Z,100.00
2022-12-27T17:30:10.896Z,100.00
2022-12-27T17:33:30.852Z,100.00
2022-12-27T17:36:47.233Z,100.00
2022-12-27T17:40:07.423Z,100.00
2022-12-27T17:44:05.362Z,100.00
2022-12-27T17:47:40.658Z,100.00
2022-12-27T17:50:44.485Z,100.00
2022-12-27T17:54:09.226Z,100.00
2022-12-27T17:57:31.155Z,100.00
2022-12-27T18:00:39.941Z,100.00
2022-12-27T18:03:47.701Z,100.00
2022-12-27T18:06:53.343Z,100.00
2022-12-27T18:10:14.807Z,100.00
2022-12-27T18:13:19.862Z,100.00
2022-12-27T18:16:24.572Z,100.00
2022-12-27T18:19:31.006Z,100.00
2022-12-27T18:22:32.654Z,100.00
2022-12-27T18:25:34.268Z,100.00
2022-12-27T18:28:35.819Z,100.00
2022-12-27T18:31:49.134Z,100.00
2022-12-27T18:35:00.833Z,100.00
2022-12-27T18:38:06.733Z,100.00
2022-12-27T18:41:21.208Z,100.00
2022-12-27T18:44:27.487Z,100.00
2022-12-27T18:47:29.571Z,100.00
2022-12-27T18:50:34.020Z,100.00
2022-12-27T18:53:38.581Z,100.00
2022-12-27T18:56:42.120Z,100.00
2022-12-27T18:59:43.702Z,100.00
2022-12-27T19:02:45.455Z,100.00
2022-12-27T19:06:02.986Z,100.00
2022-12-27T19:09:06.085Z,100.00
2022-12-27T19:12:22.437Z,100.00
2022-12-27T19:15:28.355Z,100.00
2022-12-27T19:18:34.713Z,100.00
2022-12-27T19:21:39.808Z,100.00
2022-12-27T19:24:41.261Z,100.00
2022-12-27T19:28:05.007Z,100.00
2022-12-27T19:31:18.183Z,100.00
2022-12-27T19:34:34.566Z,100.00
2022-12-27T19:37:36.184Z,100.00
2022-12-27T19:40:42.646Z,100.00
2022-12-27T19:43:46.617Z,100.00
2022-12-27T19:46:48.289Z,100.00
2022-12-27T19:49:50.757Z,100.00
2022-12-27T19:53:07.455Z,100.00
2022-12-27T19:56:40.132Z,100.00
2022-12-27T19:59:41.829Z,100.00
2022-12-27T20:02:43.594Z,100.00
2022-12-27T20:06:13.920Z,100.00
2022-12-27T20:09:19.048Z,100.00
2022-12-27T20:12:20.630Z,100.00
2022-12-27T20:15:22.194Z,100.00
2022-12-27T20:18:37.687Z,100.00
2022-12-27T20:21:40.597Z,100.00
2022-12-27T20:24:42.190Z,100.00
2022-12-27T20:27:44.545Z,100.00
2022-12-27T20:30:47.217Z,100.00
2022-12-27T20:33:53.825Z,100.00
2022-12-27T20:36:55.618Z,100.00
2022-12-27T20:39:57.086Z,100.00
2022-12-27T20:42:59.084Z,100.00
2022-12-27T20:46:08.489Z,100.00
2022-12-27T20:49:10.068Z,100.00
2022-12-27T20:52:11.595Z,100.00
2022-12-27T20:55:20.083Z,100.00
2022-12-27T20:58:37.962Z,100.00
2022-12-27T21:01:39.955Z,100.00
2022-12-27T21:05:16.437Z,100.00
2022-12-27T21:08:18.108Z,100.00
2022-12-27T21:11:23.970Z,100.00
2022-12-27T21:14:25.590Z,100.00
2022-12-27T21:17:27.216Z,100.00
2022-12-27T21:20:28.750Z,100.00
2022-12-27T21:23:35.306Z,100.00
2022-12-27T21:26:38.229Z,100.00
2022-12-27T21:29:39.864Z,100.00
2022-12-27T21:32:41.377Z,100.00
2022-12-27T21:35:42.931Z,100.00
2022-12-27T21:38:44.688Z,100.00
2022-12-27T21:41:46.360Z,100.00
2022-12-27T21:44:47.946Z,100.00
2022-12-27T21:47:59.567Z,100.00
2022-12-27T21:51:05.894Z,100.00
2022-12-27T21:54:08.139Z,100.00
2022-12-27T21:57:09.720Z,100.00
2022-12-27T22:00:12.240Z,100.00
2022-12-27T22:03:13.975Z,100.00
2022-12-27T22:06:34.573Z,100.00
2022-12-27T22:09:37.093Z,100.00
2022-12-27T22:12:38.599Z,100.00
2022-12-27T22:15:40.141Z,100.00
2022-12-27T22:18:42.940Z,100.00
2022-12-27T22:21:44.571Z,100.00
2022-12-27T22:24:46.085Z,100.00
2022-12-27T22:27:47.572Z,100.00
2022-12-27T22:30:49.134Z,100.00
2022-12-27T22:33:51.311Z,100.00
2022-12-27T22:36:53.105Z,100.00
2022-12-27T22:39:54.708Z,100.00
2022-12-27T22:42:56.421Z,100.00
2022-12-27T22:45:58.089Z,100.00
2022-12-27T22:49:00.969Z,100.00
2022-12-27T22:52:02.559Z,100.00
2022-12-27T22:55:08.085Z,100.00
2022-12-27T22:58:10.005Z,100.00
2022-12-27T23:01:18.336Z,100.00
2022-12-27T23:04:20.133Z,100.00
2022-12-27T23:08:04.220Z,100.00
2022-12-27T23:10:43.297Z,100.00
2022-12-27T23:13:45.742Z,100.00
2022-12-27T23:16:49.607Z,100.00
2022-12-27T23:19:51.272Z,100.00
2022-12-27T23:22:52.751Z,100.00
2022-12-27T23:25:54.677Z,100.00
2022-12-27T23:28:58.415Z,100.00
2022-12-27T23:32:00.042Z,100.00
2022-12-27T23:35:01.758Z,100.00
2022-12-27T23:38:03.848Z,100.00
2022-12-27T23:41:07.576Z,100.00
2022-12-27T23:44:09.178Z,100.00
2022-12-27T23:47:10.725Z,100.00
2022-12-27T23:50:17.329Z,100.00
2022-12-27T23:53:22.329Z,100.00
2022-12-27T23:56:29.142Z,100.00
2022-12-27T23:59:30.841Z,100.00
